Aérodrome :
LOGIN :

S'inscrire | Disclaimer

   EN    FR    IT 

 










Légende :    VFR   VFR Marginal   IFR   IFR Intensif   IFR Très Intensif
Visi : 
Plafond : 
>= 8 km
>= 3000ft
5 à 8 km
1000 à 3000 ft
1500m à 5 km
500 à 1000 ft
800 à 1500m
200 à 500 ft
< 800m
< 200 ft
Symboles :   Orages  Brouillard  Fortes neiges  Fortes précipitations  Vent > 20 kt
SIGMETs :   Divers  Orages  Givrage  Turbulence  Onde Orograph.  Cendres Volcan.






- Altitude de l'aérodrome : 157 ft
- Code IATA : SXF


EDDB - Berlin Schönefeld

DERNIER METAR :
  • 200050Z 30004KT 9999 OVC024 05/01 Q1042 NOSIG

METARs EXPIRÉS :
  • 200020Z 28005KT 9999 OVC025 04/02 Q1042 NOSIG
  • 192350Z 27005KT 9999 OVC026 04/02 Q1042 NOSIG
  • 192320Z 29004KT 9999 OVC026 05/01 Q1042 NOSIG
  • 192250Z 25005KT 9999 OVC027 04/02 Q1041 NOSIG
  • 192220Z VRB02KT 9999 OVC027 04/02 Q1041 NOSIG

TAF TAF EDDB
Valide du 20 à 00h jusqu'au 21 à 00h UTC


192300Z 2000/2024 24006KT 9000 BKN030
PROB30
TEMPO 2002/2005 BKN006
BECMG 2005/2007 BKN006
BECMG 2009/2011 SCT009
TEMPO 2011/2024 BKN009



MET'MAP, la Météo Aéronautique d'un coup d'oeil ! - Copyright ORBIFLY Décembre 2007 - Disclaimer

ORBIFLY MET'MAP TEAM :

Programmation & Développement : Alexandra Zaïnal
Sur une idée originale de : Baudouin d'Aumeries
Assistance à la programmation : Marc-Olivier Méhu
Soutien technique & logistique : Manuel Goepfert

Contact : metmap@orbifly.com




SOURCES & CREDITS :

   NOAA